sensor_id;sensor_type;location;lat;lon;timestamp;pressure;altitude;pressure_sealevel;temperature;humidity
19795;BME280;10057;59.402;17.866;2023-12-28T00:02:10;101016.69;;;-7.11;83.08
19795;BME280;10057;59.402;17.866;2023-12-28T00:04:37;101020.06;;;-7.14;83.37
19795;BME280;10057;59.402;17.866;2023-12-28T00:07:04;101011.44;;;-7.15;83.55
19795;BME280;10057;59.402;17.866;2023-12-28T00:09:30;101005.47;;;-7.13;82.75
19795;BME280;10057;59.402;17.866;2023-12-28T00:11:58;101002.06;;;-7.12;83.30
19795;BME280;10057;59.402;17.866;2023-12-28T00:14:25;101001.19;;;-7.13;83.46
19795;BME280;10057;59.402;17.866;2023-12-28T00:16:52;101007.94;;;-7.17;82.49
19795;BME280;10057;59.402;17.866;2023-12-28T00:19:18;101014.72;;;-7.19;83.62
19795;BME280;10057;59.402;17.866;2023-12-28T00:21:48;101012.09;;;-7.20;82.90
19795;BME280;10057;59.402;17.866;2023-12-28T00:24:20;101016.38;;;-7.21;83.45
19795;BME280;10057;59.402;17.866;2023-12-28T00:26:46;101011.97;;;-7.23;83.01
19795;BME280;10057;59.402;17.866;2023-12-28T00:29:13;101005.84;;;-7.25;83.60
19795;BME280;10057;59.402;17.866;2023-12-28T00:31:40;101016.13;;;-7.27;83.06
19795;BME280;10057;59.402;17.866;2023-12-28T00:34:06;101035.00;;;-7.28;83.36
19795;BME280;10057;59.402;17.866;2023-12-28T00:36:33;101040.03;;;-7.31;83.29
19795;BME280;10057;59.402;17.866;2023-12-28T00:39:00;101023.59;;;-7.33;82.61
19795;BME280;10057;59.402;17.866;2023-12-28T00:41:26;101018.56;;;-7.30;83.07
19795;BME280;10057;59.402;17.866;2023-12-28T00:43:53;101026.31;;;-7.30;83.36
19795;BME280;10057;59.402;17.866;2023-12-28T00:46:20;101009.00;;;-7.32;82.56
19795;BME280;10057;59.402;17.866;2023-12-28T00:48:46;101012.34;;;-7.35;82.90
19795;BME280;10057;59.402;17.866;2023-12-28T00:51:14;101011.44;;;-7.37;82.64
19795;BME280;10057;59.402;17.866;2023-12-28T00:53:41;101008.84;;;-7.37;83.70
19795;BME280;10057;59.402;17.866;2023-12-28T00:56:09;101011.44;;;-7.37;83.34
19795;BME280;10057;59.402;17.866;2023-12-28T00:58:39;101000.41;;;-7.33;83.98
19795;BME280;10057;59.402;17.866;2023-12-28T01:01:06;100987.50;;;-7.33;83.32
19795;BME280;10057;59.402;17.866;2023-12-28T01:03:32;100989.22;;;-7.33;83.05
19795;BME280;10057;59.402;17.866;2023-12-28T01:05:59;100985.69;;;-7.35;83.34
19795;BME280;10057;59.402;17.866;2023-12-28T01:08:26;100997.91;;;-7.31;82.61
19795;BME280;10057;59.402;17.866;2023-12-28T01:10:53;101002.22;;;-7.30;83.61
19795;BME280;10057;59.402;17.866;2023-12-28T01:13:19;101001.41;;;-7.29;82.86
19795;BME280;10057;59.402;17.866;2023-12-28T01:15:46;101002.22;;;-7.30;82.88
19795;BME280;10057;59.402;17.866;2023-12-28T01:18:13;100991.91;;;-7.30;83.71
19795;BME280;10057;59.402;17.866;2023-12-28T01:20:39;101003.16;;;-7.28;83.34
19795;BME280;10057;59.402;17.866;2023-12-28T01:23:06;101002.28;;;-7.29;83.37
19795;BME280;10057;59.402;17.866;2023-12-28T01:25:33;100994.63;;;-7.27;83.46
19795;BME280;10057;59.402;17.866;2023-12-28T01:28:00;100989.50;;;-7.26;83.49
19795;BME280;10057;59.402;17.866;2023-12-28T01:30:27;100996.53;;;-7.22;83.15
19795;BME280;10057;59.402;17.866;2023-12-28T01:32:54;100989.78;;;-7.18;83.03
19795;BME280;10057;59.402;17.866;2023-12-28T01:35:21;100983.00;;;-7.16;83.80
19795;BME280;10057;59.402;17.866;2023-12-28T01:37:47;100982.25;;;-7.13;83.64
19795;BME280;10057;59.402;17.866;2023-12-28T01:40:15;100979.78;;;-7.10;83.64
19795;BME280;10057;59.402;17.866;2023-12-28T01:42:42;100969.59;;;-7.07;82.88
19795;BME280;10057;59.402;17.866;2023-12-28T01:45:08;100965.34;;;-7.05;83.87
19795;BME280;10057;59.402;17.866;2023-12-28T01:47:35;100964.59;;;-7.03;82.75
19795;BME280;10057;59.402;17.866;2023-12-28T01:50:02;100958.72;;;-6.99;83.16
19795;BME280;10057;59.402;17.866;2023-12-28T01:52:29;100950.28;;;-6.95;83.67
19795;BME280;10057;59.402;17.866;2023-12-28T01:54:56;100942.66;;;-6.92;83.80
19795;BME280;10057;59.402;17.866;2023-12-28T01:57:23;100942.00;;;-6.86;82.82
19795;BME280;10057;59.402;17.866;2023-12-28T01:59:52;100934.38;;;-6.83;83.10
19795;BME280;10057;59.402;17.866;2023-12-28T02:02:18;100930.22;;;-6.79;83.98
19795;BME280;10057;59.402;17.866;2023-12-28T02:04:45;100926.88;;;-6.77;82.71
19795;BME280;10057;59.402;17.866;2023-12-28T02:07:13;100914.84;;;-6.76;83.45
19795;BME280;10057;59.402;17.866;2023-12-28T02:09:40;100915.81;;;-6.73;83.40
19795;BME280;10057;59.402;17.866;2023-12-28T02:12:07;100918.50;;;-6.70;83.10
19795;BME280;10057;59.402;17.866;2023-12-28T02:14:34;100928.13;;;-6.65;83.30
19795;BME280;10057;59.402;17.866;2023-12-28T02:17:05;100920.41;;;-6.64;83.39
19795;BME280;10057;59.402;17.866;2023-12-28T02:19:50;100910.16;;;-6.62;82.62
19795;BME280;10057;59.402;17.866;2023-12-28T02:22:17;100905.00;;;-6.62;83.53
19795;BME280;10057;59.402;17.866;2023-12-28T02:25:10;100896.41;;;-6.61;83.78
19795;BME280;10057;59.402;17.866;2023-12-28T02:27:46;100894.72;;;-6.61;83.87
19795;BME280;10057;59.402;17.866;2023-12-28T02:30:16;100889.56;;;-6.61;83.01
19795;BME280;10057;59.402;17.866;2023-12-28T02:35:29;100882.78;;;-6.57;83.55
19795;BME280;10057;59.402;17.866;2023-12-28T02:38:03;100869.88;;;-6.57;82.59
19795;BME280;10057;59.402;17.866;2023-12-28T02:40:36;100860.41;;;-6.58;83.56
19795;BME280;10057;59.402;17.866;2023-12-28T02:43:05;100856.97;;;-6.57;83.49
19795;BME280;10057;59.402;17.866;2023-12-28T02:45:32;100850.19;;;-6.55;82.61
19795;BME280;10057;59.402;17.866;2023-12-28T02:47:59;100838.19;;;-6.53;83.10
19795;BME280;10057;59.402;17.866;2023-12-28T02:50:26;100832.25;;;-6.51;83.57
19795;BME280;10057;59.402;17.866;2023-12-28T02:52:53;100831.47;;;-6.48;83.19
19795;BME280;10057;59.402;17.866;2023-12-28T02:55:20;100827.28;;;-6.45;83.72
19795;BME280;10057;59.402;17.866;2023-12-28T02:57:46;100824.75;;;-6.43;83.83
19795;BME280;10057;59.402;17.866;2023-12-28T03:00:13;100825.66;;;-6.42;83.24
19795;BME280;10057;59.402;17.866;2023-12-28T03:02:40;100821.38;;;-6.42;83.65
19795;BME280;10057;59.402;17.866;2023-12-28T03:05:07;100822.28;;;-6.40;82.88
19795;BME280;10057;59.402;17.866;2023-12-28T03:07:34;100815.41;;;-6.39;83.62
19795;BME280;10057;59.402;17.866;2023-12-28T03:10:02;100815.38;;;-6.41;82.37
19795;BME280;10057;59.402;17.866;2023-12-28T03:12:30;100815.22;;;-6.46;82.47
19795;BME280;10057;59.402;17.866;2023-12-28T03:14:56;100810.72;;;-6.51;82.44
19795;BME280;10057;59.402;17.866;2023-12-28T03:17:23;100810.72;;;-6.51;82.27
19795;BME280;10057;59.402;17.866;2023-12-28T03:19:50;100802.00;;;-6.55;82.67
19795;BME280;10057;59.402;17.866;2023-12-28T03:22:17;100795.13;;;-6.54;82.37
19795;BME280;10057;59.402;17.866;2023-12-28T03:24:44;100789.09;;;-6.55;83.11
19795;BME280;10057;59.402;17.866;2023-12-28T03:27:12;100791.72;;;-6.53;82.57
19795;BME280;10057;59.402;17.866;2023-12-28T03:29:40;100777.13;;;-6.53;83.16
19795;BME280;10057;59.402;17.866;2023-12-28T03:32:07;100771.16;;;-6.50;83.33
19795;BME280;10057;59.402;17.866;2023-12-28T03:34:34;100763.53;;;-6.47;82.67
19795;BME280;10057;59.402;17.866;2023-12-28T03:37:02;100765.34;;;-6.45;83.28
19795;BME280;10057;59.402;17.866;2023-12-28T03:39:28;100761.03;;;-6.44;82.93
19795;BME280;10057;59.402;17.866;2023-12-28T03:41:55;100750.78;;;-6.42;82.87
19795;BME280;10057;59.402;17.866;2023-12-28T03:44:22;100750.72;;;-6.44;83.68
19795;BME280;10057;59.402;17.866;2023-12-28T03:46:50;100746.44;;;-6.44;82.77
19795;BME280;10057;59.402;17.866;2023-12-28T03:49:20;100742.09;;;-6.45;83.23
19795;BME280;10057;59.402;17.866;2023-12-28T03:51:49;100738.59;;;-6.47;82.84
19795;BME280;10057;59.402;17.866;2023-12-28T03:54:17;100741.25;;;-6.44;83.37
19795;BME280;10057;59.402;17.866;2023-12-28T03:56:45;100737.88;;;-6.42;82.96
19795;BME280;10057;59.402;17.866;2023-12-28T03:59:13;100731.09;;;-6.39;83.51
19795;BME280;10057;59.402;17.866;2023-12-28T04:01:42;100719.81;;;-6.42;83.44
19795;BME280;10057;59.402;17.866;2023-12-28T04:04:09;100715.41;;;-6.45;82.66
19795;BME280;10057;59.402;17.866;2023-12-28T04:06:37;100711.16;;;-6.43;83.66
19795;BME280;10057;59.402;17.866;2023-12-28T04:09:04;100710.38;;;-6.40;83.72
19795;BME280;10057;59.402;17.866;2023-12-28T04:11:31;100705.28;;;-6.39;83.37
19795;BME280;10057;59.402;17.866;2023-12-28T04:13:58;100701.78;;;-6.39;82.57
19795;BME280;10057;59.402;17.866;2023-12-28T04:16:24;100710.34;;;-6.42;82.45
19795;BME280;10057;59.402;17.866;2023-12-28T04:18:51;100704.44;;;-6.38;83.52
19795;BME280;10057;59.402;17.866;2023-12-28T04:21:18;100708.78;;;-6.37;82.96
19795;BME280;10057;59.402;17.866;2023-12-28T04:23:45;100715.69;;;-6.36;83.20
19795;BME280;10057;59.402;17.866;2023-12-28T04:26:11;100710.47;;;-6.37;82.57
19795;BME280;10057;59.402;17.866;2023-12-28T04:28:39;100704.34;;;-6.41;82.69
19795;BME280;10057;59.402;17.866;2023-12-28T04:31:06;100709.50;;;-6.41;82.91
19795;BME280;10057;59.402;17.866;2023-12-28T04:33:34;100703.38;;;-6.45;83.17
19795;BME280;10057;59.402;17.866;2023-12-28T04:36:04;100702.50;;;-6.45;83.32
19795;BME280;10057;59.402;17.866;2023-12-28T04:38:32;100701.56;;;-6.47;83.15
19795;BME280;10057;59.402;17.866;2023-12-28T04:40:59;100692.94;;;-6.48;83.50
19795;BME280;10057;59.402;17.866;2023-12-28T04:43:26;100686.91;;;-6.48;82.51
19795;BME280;10057;59.402;17.866;2023-12-28T04:45:53;100674.84;;;-6.49;83.17
19795;BME280;10057;59.402;17.866;2023-12-28T04:48:20;100671.44;;;-6.48;83.29
19795;BME280;10057;59.402;17.866;2023-12-28T04:50:50;100656.78;;;-6.49;82.45
19795;BME280;10057;59.402;17.866;2023-12-28T04:53:19;100650.78;;;-6.48;83.12
19795;BME280;10057;59.402;17.866;2023-12-28T04:55:46;100642.19;;;-6.47;82.83
19795;BME280;10057;59.402;17.866;2023-12-28T04:58:12;100637.91;;;-6.47;82.76
19795;BME280;10057;59.402;17.866;2023-12-28T05:00:39;100636.19;;;-6.46;83.34
19795;BME280;10057;59.402;17.866;2023-12-28T05:03:07;100619.94;;;-6.44;82.89
19795;BME280;10057;59.402;17.866;2023-12-28T05:05:33;100621.72;;;-6.41;83.61
19795;BME280;10057;59.402;17.866;2023-12-28T05:08:00;100623.56;;;-6.37;82.95
19795;BME280;10057;59.402;17.866;2023-12-28T05:10:29;100607.28;;;-6.34;83.74
19795;BME280;10057;59.402;17.866;2023-12-28T05:12:55;100603.97;;;-6.30;83.32
19795;BME280;10057;59.402;17.866;2023-12-28T05:15:25;100601.44;;;-6.29;82.88
19795;BME280;10057;59.402;17.866;2023-12-28T05:17:52;100595.38;;;-6.29;83.20
19795;BME280;10057;59.402;17.866;2023-12-28T05:20:19;100595.47;;;-6.26;82.81
19795;BME280;10057;59.402;17.866;2023-12-28T05:22:45;100584.34;;;-6.24;82.92
19795;BME280;10057;59.402;17.866;2023-12-28T05:25:12;100563.78;;;-6.21;83.03
19795;BME280;10057;59.402;17.866;2023-12-28T05:27:39;100564.72;;;-6.18;82.80
19795;BME280;10057;59.402;17.866;2023-12-28T05:30:07;100563.97;;;-6.14;82.96
19795;BME280;10057;59.402;17.866;2023-12-28T05:32:35;100565.75;;;-6.12;83.14
19795;BME280;10057;59.402;17.866;2023-12-28T05:35:01;100558.00;;;-6.12;83.60
19795;BME280;10057;59.402;17.866;2023-12-28T05:37:29;100553.81;;;-6.08;83.66
19795;BME280;10057;59.402;17.866;2023-12-28T05:39:56;100552.13;;;-6.06;82.75
19795;BME280;10057;59.402;17.866;2023-12-28T05:42:24;100540.03;;;-6.07;83.36
19795;BME280;10057;59.402;17.866;2023-12-28T05:44:51;100541.78;;;-6.06;83.50
19795;BME280;10057;59.402;17.866;2023-12-28T05:47:17;100543.59;;;-6.02;82.83
19795;BME280;10057;59.402;17.866;2023-12-28T05:49:44;100546.19;;;-6.02;82.69
19795;BME280;10057;59.402;17.866;2023-12-28T05:52:11;100543.59;;;-6.02;83.39
19795;BME280;10057;59.402;17.866;2023-12-28T05:54:41;100531.63;;;-6.00;83.37
19795;BME280;10057;59.402;17.866;2023-12-28T05:57:10;100527.38;;;-5.98;83.22
19795;BME280;10057;59.402;17.866;2023-12-28T05:59:38;100513.66;;;-5.96;83.48
19795;BME280;10057;59.402;17.866;2023-12-28T06:02:06;100505.09;;;-5.91;83.07
19795;BME280;10057;59.402;17.866;2023-12-28T06:04:33;100507.81;;;-5.87;83.21
19795;BME280;10057;59.402;17.866;2023-12-28T06:07:02;100500.06;;;-5.87;82.92
19795;BME280;10057;59.402;17.866;2023-12-28T06:09:29;100508.78;;;-5.83;83.63
19795;BME280;10057;59.402;17.866;2023-12-28T06:11:56;100505.34;;;-5.82;83.65
19795;BME280;10057;59.402;17.866;2023-12-28T06:14:22;100506.22;;;-5.82;83.26
19795;BME280;10057;59.402;17.866;2023-12-28T06:16:49;100502.81;;;-5.81;83.13
19795;BME280;10057;59.402;17.866;2023-12-28T06:19:16;100497.66;;;-5.81;82.76
19795;BME280;10057;59.402;17.866;2023-12-28T06:21:43;100501.19;;;-5.77;82.87
19795;BME280;10057;59.402;17.866;2023-12-28T06:24:10;100489.22;;;-5.74;82.97
19795;BME280;10057;59.402;17.866;2023-12-28T06:26:43;100481.53;;;-5.70;82.83
19795;BME280;10057;59.402;17.866;2023-12-28T06:29:10;100485.00;;;-5.68;82.75
19795;BME280;10057;59.402;17.866;2023-12-28T06:31:37;100489.38;;;-5.67;83.45
19795;BME280;10057;59.402;17.866;2023-12-28T06:34:05;100482.44;;;-5.68;83.09
19795;BME280;10057;59.402;17.866;2023-12-28T06:36:33;100483.28;;;-5.68;82.58
19795;BME280;10057;59.402;17.866;2023-12-28T06:39:00;100477.25;;;-5.68;83.31
19795;BME280;10057;59.402;17.866;2023-12-28T06:41:27;100477.25;;;-5.68;83.10
19795;BME280;10057;59.402;17.866;2023-12-28T06:43:53;100483.34;;;-5.66;82.72
19795;BME280;10057;59.402;17.866;2023-12-28T06:46:20;100471.28;;;-5.66;82.91
19795;BME280;10057;59.402;17.866;2023-12-28T06:48:47;100475.66;;;-5.63;83.24
19795;BME280;10057;59.402;17.866;2023-12-28T06:51:18;100484.25;;;-5.64;83.07
19795;BME280;10057;59.402;17.866;2023-12-28T06:53:46;100482.50;;;-5.65;83.25
19795;BME280;10057;59.402;17.866;2023-12-28T06:56:13;100470.44;;;-5.65;83.07
19795;BME280;10057;59.402;17.866;2023-12-28T06:58:40;100455.81;;;-5.64;83.25
19795;BME280;10057;59.402;17.866;2023-12-28T07:01:07;100464.50;;;-5.61;83.05
19795;BME280;10057;59.402;17.866;2023-12-28T07:03:34;100455.06;;;-5.60;82.88
19795;BME280;10057;59.402;17.866;2023-12-28T07:06:01;100449.06;;;-5.58;82.53
19795;BME280;10057;59.402;17.866;2023-12-28T07:08:29;100436.19;;;-5.56;82.88
19795;BME280;10057;59.402;17.866;2023-12-28T07:11:00;100426.75;;;-5.54;82.84
19795;BME280;10057;59.402;17.866;2023-12-28T07:13:27;100415.59;;;-5.53;83.28
19795;BME280;10057;59.402;17.866;2023-12-28T07:15:54;100410.50;;;-5.50;83.12
19795;BME280;10057;59.402;17.866;2023-12-28T07:18:25;100406.19;;;-5.50;83.15
19795;BME280;10057;59.402;17.866;2023-12-28T07:20:52;100404.47;;;-5.49;83.13
19795;BME280;10057;59.402;17.866;2023-12-28T07:23:18;100409.72;;;-5.46;83.40
19795;BME280;10057;59.402;17.866;2023-12-28T07:25:45;100393.34;;;-5.46;83.08
19795;BME280;10057;59.402;17.866;2023-12-28T07:28:12;100397.66;;;-5.45;83.32
19795;BME280;10057;59.402;17.866;2023-12-28T07:30:39;100398.53;;;-5.45;82.86
19795;BME280;10057;59.402;17.866;2023-12-28T07:33:08;100399.38;;;-5.46;83.06
19795;BME280;10057;59.402;17.866;2023-12-28T07:35:35;100381.28;;;-5.46;82.57
19795;BME280;10057;59.402;17.866;2023-12-28T07:38:01;100364.91;;;-5.45;82.46
19795;BME280;10057;59.402;17.866;2023-12-28T07:40:28;100359.78;;;-5.43;83.20
19795;BME280;10057;59.402;17.866;2023-12-28T07:42:55;100360.63;;;-5.44;82.80
19795;BME280;10057;59.402;17.866;2023-12-28T07:45:23;100360.59;;;-5.46;83.04
19795;BME280;10057;59.402;17.866;2023-12-28T07:47:51;100364.91;;;-5.45;83.47
19795;BME280;10057;59.402;17.866;2023-12-28T07:50:19;100364.44;;;-5.27;83.31
19795;BME280;10057;59.402;17.866;2023-12-28T07:52:46;100368.28;;;-5.07;82.17
19795;BME280;10057;59.402;17.866;2023-12-28T07:55:13;100370.06;;;-5.04;81.87
19795;BME280;10057;59.402;17.866;2023-12-28T07:57:40;100364.84;;;-5.07;82.46
19795;BME280;10057;59.402;17.866;2023-12-28T08:00:08;100363.09;;;-5.08;82.13
19795;BME280;10057;59.402;17.866;2023-12-28T08:02:35;100352.69;;;-5.11;82.84
19795;BME280;10057;59.402;17.866;2023-12-28T08:05:03;100347.50;;;-5.11;82.59
19795;BME280;10057;59.402;17.866;2023-12-28T08:07:30;100346.66;;;-5.10;82.37
19795;BME280;10057;59.402;17.866;2023-12-28T08:09:57;100340.69;;;-5.06;82.57
19795;BME280;10057;59.402;17.866;2023-12-28T08:12:23;100335.59;;;-5.03;83.02
19795;BME280;10057;59.402;17.866;2023-12-28T08:14:54;100323.59;;;-5.00;83.07
19795;BME280;10057;59.402;17.866;2023-12-28T08:17:21;100327.16;;;-4.94;83.36
19795;BME280;10057;59.402;17.866;2023-12-28T08:19:48;100321.22;;;-4.89;82.89
19795;BME280;10057;59.402;17.866;2023-12-28T08:22:15;100318.78;;;-4.81;83.52
19795;BME280;10057;59.402;17.866;2023-12-28T08:24:42;100313.66;;;-4.77;83.45
19795;BME280;10057;59.402;17.866;2023-12-28T08:27:08;100313.84;;;-4.67;83.20
19795;BME280;10057;59.402;17.866;2023-12-28T08:29:35;100304.47;;;-4.61;83.46
19795;BME280;10057;59.402;17.866;2023-12-28T08:32:02;100299.41;;;-4.52;83.16
19795;BME280;10057;59.402;17.866;2023-12-28T08:34:29;100290.06;;;-4.43;83.44
19795;BME280;10057;59.402;17.866;2023-12-28T08:36:57;100289.38;;;-4.33;83.38
19795;BME280;10057;59.402;17.866;2023-12-28T08:39:23;100280.03;;;-4.23;83.35
19795;BME280;10057;59.402;17.866;2023-12-28T08:41:50;100267.19;;;-4.14;83.55
19795;BME280;10057;59.402;17.866;2023-12-28T08:44:17;100250.13;;;-4.01;83.63
19795;BME280;10057;59.402;17.866;2023-12-28T08:46:43;100242.47;;;-3.91;83.61
19795;BME280;10057;59.402;17.866;2023-12-28T08:49:10;100235.69;;;-3.83;83.78
19795;BME280;10057;59.402;17.866;2023-12-28T08:51:37;100221.09;;;-3.74;83.33
19795;BME280;10057;59.402;17.866;2023-12-28T08:54:08;100217.78;;;-3.64;83.48
19795;BME280;10057;59.402;17.866;2023-12-28T08:56:35;100215.28;;;-3.55;83.44
19795;BME280;10057;59.402;17.866;2023-12-28T08:59:02;100216.25;;;-3.47;83.04
19795;BME280;10057;59.402;17.866;2023-12-28T09:01:30;100209.41;;;-3.40;83.30
19795;BME280;10057;59.402;17.866;2023-12-28T09:03:58;100214.66;;;-3.33;83.48
19795;BME280;10057;59.402;17.866;2023-12-28T09:06:25;100212.13;;;-3.26;83.91
19795;BME280;10057;59.402;17.866;2023-12-28T09:08:52;100204.44;;;-3.19;83.55
19795;BME280;10057;59.402;17.866;2023-12-28T09:11:20;100201.03;;;-3.13;83.19
19795;BME280;10057;59.402;17.866;2023-12-28T09:13:47;100189.84;;;-3.06;83.47
19795;BME280;10057;59.402;17.866;2023-12-28T09:16:14;100188.16;;;-3.01;83.18
19795;BME280;10057;59.402;17.866;2023-12-28T09:18:42;100184.75;;;-2.97;83.24
19795;BME280;10057;59.402;17.866;2023-12-28T09:21:09;100181.31;;;-2.93;83.40
19795;BME280;10057;59.402;17.866;2023-12-28T09:23:36;100186.53;;;-2.88;83.42
19795;BME280;10057;59.402;17.866;2023-12-28T09:26:04;100171.88;;;-2.83;83.23
19795;BME280;10057;59.402;17.866;2023-12-28T09:28:32;100164.16;;;-2.75;83.29
19795;BME280;10057;59.402;17.866;2023-12-28T09:31:00;100159.00;;;-2.69;83.38
19795;BME280;10057;59.402;17.866;2023-12-28T09:33:27;100149.53;;;-2.63;83.77
19795;BME280;10057;59.402;17.866;2023-12-28T09:35:53;100142.63;;;-2.57;83.25
19795;BME280;10057;59.402;17.866;2023-12-28T09:38:20;100134.00;;;-2.50;83.61
19795;BME280;10057;59.402;17.866;2023-12-28T09:40:52;100123.66;;;-2.44;83.75
19795;BME280;10057;59.402;17.866;2023-12-28T09:43:25;100118.53;;;-2.35;83.53
19795;BME280;10057;59.402;17.866;2023-12-28T09:45:53;100119.44;;;-2.28;83.30
19795;BME280;10057;59.402;17.866;2023-12-28T09:48:21;100110.81;;;-2.21;83.48
19795;BME280;10057;59.402;17.866;2023-12-28T09:50:53;100104.78;;;-2.14;83.10
19795;BME280;10057;59.402;17.866;2023-12-28T09:53:25;100101.34;;;-2.08;83.80
19795;BME280;10057;59.402;17.866;2023-12-28T09:55:53;100098.75;;;-2.04;83.60
19795;BME280;10057;59.402;17.866;2023-12-28T09:58:20;100087.50;;;-2.00;83.53
19795;BME280;10057;59.402;17.866;2023-12-28T10:00:49;100075.38;;;-1.96;83.59
19795;BME280;10057;59.402;17.866;2023-12-28T10:03:17;100067.56;;;-1.92;83.48
19795;BME280;10057;59.402;17.866;2023-12-28T10:05:45;100060.69;;;-1.88;83.66
19795;BME280;10057;59.402;17.866;2023-12-28T10:08:12;100043.34;;;-1.84;83.34
19795;BME280;10057;59.402;17.866;2023-12-28T10:10:40;100035.53;;;-1.80;83.56
19795;BME280;10057;59.402;17.866;2023-12-28T10:13:07;100026.88;;;-1.76;83.57
19795;BME280;10057;59.402;17.866;2023-12-28T10:15:36;100025.16;;;-1.71;83.38
19795;BME280;10057;59.402;17.866;2023-12-28T10:18:04;100022.56;;;-1.66;83.38
19795;BME280;10057;59.402;17.866;2023-12-28T10:20:32;100027.75;;;-1.63;83.21
19795;BME280;10057;59.402;17.866;2023-12-28T10:22:59;100021.69;;;-1.59;83.32
19795;BME280;10057;59.402;17.866;2023-12-28T10:25:27;100003.47;;;-1.54;83.46
19795;BME280;10057;59.402;17.866;2023-12-28T10:27:54;100001.75;;;-1.51;83.18
19795;BME280;10057;59.402;17.866;2023-12-28T10:30:21;99988.72;;;-1.48;83.92
19795;BME280;10057;59.402;17.866;2023-12-28T10:32:49;99984.41;;;-1.42;83.37
19795;BME280;10057;59.402;17.866;2023-12-28T10:35:16;99972.25;;;-1.39;83.25
19795;BME280;10057;59.402;17.866;2023-12-28T10:37:43;99951.44;;;-1.37;83.53
19795;BME280;10057;59.402;17.866;2023-12-28T10:40:14;99949.69;;;-1.34;83.83
19795;BME280;10057;59.402;17.866;2023-12-28T10:45:41;99933.22;;;-1.28;83.51
19795;BME280;10057;59.402;17.866;2023-12-28T10:48:11;99931.50;;;-1.26;83.99
19795;BME280;10057;59.402;17.866;2023-12-28T10:50:45;99923.63;;;-1.23;83.96
19795;BME280;10057;59.402;17.866;2023-12-28T10:53:39;99906.31;;;-1.20;84.25
19795;BME280;10057;59.402;17.866;2023-12-28T10:56:27;99906.28;;;-1.18;83.68
19795;BME280;10057;59.402;17.866;2023-12-28T10:59:12;99899.34;;;-1.16;83.81
19795;BME280;10057;59.402;17.866;2023-12-28T11:01:46;99896.72;;;-1.14;83.28
19795;BME280;10057;59.402;17.866;2023-12-28T11:04:44;99887.22;;;-1.15;83.48
19795;BME280;10057;59.402;17.866;2023-12-28T11:07:15;99867.25;;;-1.15;83.93
19795;BME280;10057;59.402;17.866;2023-12-28T11:09:44;99855.09;;;-1.14;83.54
19795;BME280;10057;59.402;17.866;2023-12-28T11:12:11;99851.59;;;-1.10;83.88
19795;BME280;10057;59.402;17.866;2023-12-28T11:14:42;99833.38;;;-1.06;84.08
19795;BME280;10057;59.402;17.866;2023-12-28T11:17:09;99828.13;;;-1.01;84.31
19795;BME280;10057;59.402;17.866;2023-12-28T11:19:37;99807.28;;;-0.97;84.37
19795;BME280;10057;59.402;17.866;2023-12-28T11:22:05;99791.63;;;-0.90;84.08
19795;BME280;10057;59.402;17.866;2023-12-28T11:24:32;99783.78;;;-0.86;83.96
19795;BME280;10057;59.402;17.866;2023-12-28T11:26:59;99786.34;;;-0.78;84.16
19795;BME280;10057;59.402;17.866;2023-12-28T11:29:29;99769.81;;;-0.74;84.50
19795;BME280;10057;59.402;17.866;2023-12-28T11:31:58;99758.47;;;-0.67;84.52
19795;BME280;10057;59.402;17.866;2023-12-28T11:34:30;99741.06;;;-0.62;84.20
19795;BME280;10057;59.402;17.866;2023-12-28T11:37:00;99741.03;;;-0.56;84.44
19795;BME280;10057;59.402;17.866;2023-12-28T11:39:31;99739.22;;;-0.49;84.35
19795;BME280;10057;59.402;17.866;2023-12-28T11:42:04;99733.13;;;-0.43;84.41
19795;BME280;10057;59.402;17.866;2023-12-28T11:44:36;99726.97;;;-0.36;84.58
19795;BME280;10057;59.402;17.866;2023-12-28T11:47:20;99720.84;;;-0.31;84.40
19795;BME280;10057;59.402;17.866;2023-12-28T11:49:48;99716.44;;;-0.26;84.54
19795;BME280;10057;59.402;17.866;2023-12-28T11:52:29;99724.22;;;-0.19;84.53
19795;BME280;10057;59.402;17.866;2023-12-28T11:54:57;99716.31;;;-0.12;84.78
19795;BME280;10057;59.402;17.866;2023-12-28T11:57:24;99703.25;;;-0.09;84.59
19795;BME280;10057;59.402;17.866;2023-12-28T11:59:57;99689.28;;;-0.05;84.40
19795;BME280;10057;59.402;17.866;2023-12-28T12:02:25;99697.06;;;0.02;84.39
19795;BME280;10057;59.402;17.866;2023-12-28T12:04:53;99687.44;;;0.05;84.81
19795;BME280;10057;59.402;17.866;2023-12-28T12:07:21;99676.09;;;0.11;84.53
19795;BME280;10057;59.402;17.866;2023-12-28T12:09:48;99669.06;;;0.16;84.54
19795;BME280;10057;59.402;17.866;2023-12-28T12:12:16;99665.53;;;0.20;84.84
19795;BME280;10057;59.402;17.866;2023-12-28T12:14:42;99671.56;;;0.25;84.76
19795;BME280;10057;59.402;17.866;2023-12-28T12:17:09;99656.72;;;0.30;84.51
19795;BME280;10057;59.402;17.866;2023-12-28T12:19:37;99646.25;;;0.33;84.65
19795;BME280;10057;59.402;17.866;2023-12-28T12:22:04;99647.06;;;0.37;84.54
19795;BME280;10057;59.402;17.866;2023-12-28T12:24:32;99636.59;;;0.40;84.67
19795;BME280;10057;59.402;17.866;2023-12-28T12:27:00;99626.97;;;0.43;84.58
19795;BME280;10057;59.402;17.866;2023-12-28T12:29:32;99628.69;;;0.46;84.87
19795;BME280;10057;59.402;17.866;2023-12-28T12:31:58;99605.16;;;0.49;84.84
19795;BME280;10057;59.402;17.866;2023-12-28T12:34:25;99604.25;;;0.52;85.03
19795;BME280;10057;59.402;17.866;2023-12-28T12:36:52;99599.84;;;0.55;84.92
19795;BME280;10057;59.402;17.866;2023-12-28T12:39:24;99591.97;;;0.58;84.94
19795;BME280;10057;59.402;17.866;2023-12-28T12:41:52;99581.50;;;0.60;84.89
19795;BME280;10057;59.402;17.866;2023-12-28T12:44:22;99572.72;;;0.64;84.84
19795;BME280;10057;59.402;17.866;2023-12-28T12:46:56;99550.09;;;0.66;84.94
19795;BME280;10057;59.402;17.866;2023-12-28T12:49:22;99553.50;;;0.69;84.91
19795;BME280;10057;59.402;17.866;2023-12-28T12:51:52;99546.53;;;0.70;85.01
19795;BME280;10057;59.402;17.866;2023-12-28T12:54:19;99536.06;;;0.73;84.99